Time;durP1;ratioP1;P1;durP2;ratioP2;P2;SDS_P1;SDS_P2;PMS_P1;PMS_P2;Temp;Humidity;BMP_temperature;BMP_pressure;BME280_temperature;BME280_humidity;BME280_pressure;Samples;Min_cycle;Max_cycle;Signal;HPM_P1;HPM_P2
2022/10/04 05:45:33;;;;;;;7.57;5.57;;;4.00;99.90;;;;;;4854741;29;20467;-79
2022/10/04 05:48:12;;;;;;;7.73;5.90;;;4.10;99.90;;;;;;4862918;29;20267;-76
2022/10/04 05:50:42;;;;;;;11.60;6.40;;;4.20;99.90;;;;;;4861643;29;20705;-78
2022/10/04 05:53:23;;;;;;;12.80;5.97;;;4.30;99.90;;;;;;4857011;29;20364;-77
2022/10/04 05:56:04;;;;;;;9.97;5.80;;;4.40;99.90;;;;;;4861779;29;20275;-76
2022/10/04 05:58:51;;;;;;;9.23;6.33;;;4.50;99.90;;;;;;4857589;29;20239;-76
2022/10/04 06:01:40;;;;;;;10.20;5.80;;;4.60;99.90;;;;;;4829686;29;20211;-78
2022/10/04 06:04:32;;;;;;;9.83;5.83;;;4.70;99.90;;;;;;4844138;29;20681;-77
2022/10/04 06:07:09;;;;;;;10.30;5.67;;;4.80;99.90;;;;;;4844365;29;20239;-77
2022/10/04 06:09:54;;;;;;;10.87;5.53;;;4.90;99.90;;;;;;4841790;29;20503;-77
2022/10/04 06:12:34;;;;;;;9.37;5.73;;;5.00;99.90;;;;;;4838334;29;20208;-77
2022/10/04 06:15:25;;;;;;;8.90;5.63;;;5.10;99.90;;;;;;4844167;29;20228;-78
2022/10/04 06:18:13;;;;;;;11.03;5.67;;;5.30;99.90;;;;;;4843084;29;20212;-77
2022/10/04 06:21:10;;;;;;;7.27;5.30;;;5.40;99.90;;;;;;4843995;29;20216;-77
2022/10/04 06:23:46;;;;;;;7.37;5.17;;;5.50;99.90;;;;;;4840222;29;20226;-80
2022/10/04 06:26:23;;;;;;;6.67;5.20;;;5.70;99.90;;;;;;4840883;29;20243;-80
2022/10/04 06:28:58;;;;;;;7.83;6.00;;;5.80;99.90;;;;;;4843008;29;20247;-75
2022/10/04 06:31:53;;;;;;;8.23;5.50;;;5.80;99.90;;;;;;4846883;29;20226;-74
2022/10/04 06:34:54;;;;;;;9.80;5.40;;;6.00;99.90;;;;;;4845525;29;20244;-76
2022/10/04 06:37:50;;;;;;;8.03;5.40;;;6.20;99.90;;;;;;4844354;29;20559;-80
2022/10/04 06:40:38;;;;;;;8.67;5.10;;;6.50;99.90;;;;;;4843089;29;20251;-77
2022/10/04 06:43:35;;;;;;;8.20;5.00;;;6.90;99.90;;;;;;4848332;29;20227;-75
2022/10/04 06:46:11;;;;;;;10.50;4.90;;;6.90;99.90;;;;;;4828033;29;20242;-75
2022/10/04 06:49:06;;;;;;;8.17;4.23;;;7.20;99.90;;;;;;4843338;29;20291;-78
2022/10/04 06:52:08;;;;;;;9.43;4.60;;;7.40;99.90;;;;;;4845572;29;20674;-78
2022/10/04 06:54:54;;;;;;;12.10;4.50;;;7.50;99.90;;;;;;4846705;29;20310;-77
2022/10/04 06:57:44;;;;;;;9.13;4.53;;;7.70;99.90;;;;;;4842365;29;20227;-77
2022/10/04 07:00:17;;;;;;;7.07;4.23;;;7.70;99.90;;;;;;4843874;29;20315;-75
2022/10/04 07:02:53;;;;;;;7.37;4.73;;;7.70;99.90;;;;;;4844232;29;20219;-78
2022/10/04 07:05:30;;;;;;;6.53;4.40;;;7.90;99.90;;;;;;4843108;29;20609;-76
2022/10/04 07:08:09;;;;;;;7.77;4.90;;;8.10;99.90;;;;;;4844608;29;20576;-77
2022/10/04 07:10:51;;;;;;;8.00;5.10;;;8.40;99.90;;;;;;4843934;29;20292;-78
2022/10/04 07:13:32;;;;;;;9.00;4.90;;;8.60;99.90;;;;;;4825549;29;20212;-79
2022/10/04 07:16:05;;;;;;;6.63;4.73;;;8.60;99.90;;;;;;4851392;29;20646;-79
2022/10/04 07:18:40;;;;;;;7.27;4.70;;;8.70;99.90;;;;;;4861510;29;20202;-77
2022/10/04 07:21:12;;;;;;;10.63;5.23;;;8.90;99.90;;;;;;4844357;29;20217;-76
2022/10/04 07:23:53;;;;;;;6.97;5.07;;;9.00;99.90;;;;;;4842593;29;20689;-79
2022/10/04 07:26:29;;;;;;;7.33;5.83;;;9.40;99.90;;;;;;4843355;29;20196;-80
2022/10/04 07:29:20;;;;;;;10.57;5.00;;;9.80;99.90;;;;;;4842643;29;20219;-74
2022/10/04 07:31:53;;;;;;;6.50;4.50;;;10.10;99.90;;;;;;4843112;29;20211;-78
2022/10/04 07:34:26;;;;;;;9.37;4.43;;;10.50;99.90;;;;;;4843738;29;20216;-80
2022/10/04 07:36:57;;;;;;;5.63;4.07;;;10.70;99.90;;;;;;4843111;29;20214;-77
2022/10/04 07:39:33;;;;;;;7.23;4.57;;;10.80;99.90;;;;;;4841366;29;20302;-78
2022/10/04 07:42:15;;;;;;;8.43;4.70;;;10.50;99.90;;;;;;4843313;29;20195;-78
2022/10/04 07:44:54;;;;;;;7.20;4.67;;;10.40;99.90;;;;;;4842842;29;20223;-79
2022/10/04 07:47:26;;;;;;;9.13;4.30;;;10.50;99.90;;;;;;4842180;29;20223;-75
2022/10/04 07:49:58;;;;;;;7.40;4.77;;;10.40;99.90;;;;;;4842810;29;20271;-78
2022/10/04 07:52:53;;;;;;;7.00;4.53;;;10.50;99.90;;;;;;4842908;29;20204;-73
2022/10/04 07:55:32;;;;;;;6.13;4.60;;;10.90;99.90;;;;;;4836243;29;20224;-74
2022/10/04 07:58:19;;;;;;;9.50;4.50;;;11.10;99.90;;;;;;4843039;29;20196;-75
2022/10/04 08:00:54;;;;;;;6.27;4.57;;;11.40;99.90;;;;;;4842529;29;20203;-79
2022/10/04 08:03:45;;;;;;;12.47;5.03;;;11.70;99.90;;;;;;4842121;29;20234;-78
2022/10/04 08:06:19;;;;;;;10.37;4.30;;;11.80;99.90;;;;;;4841137;29;20215;-78
2022/10/04 08:09:11;;;;;;;7.63;4.77;;;11.80;99.90;;;;;;4844084;29;20228;-78
2022/10/04 08:11:48;;;;;;;8.80;4.63;;;12.00;99.90;;;;;;4840690;29;20226;-77
2022/10/04 08:14:34;;;;;;;8.43;4.20;;;11.90;99.90;;;;;;4842006;29;20211;-78
2022/10/04 08:17:16;;;;;;;7.43;4.40;;;11.90;99.90;;;;;;4842211;29;20211;-79
2022/10/04 08:19:56;;;;;;;7.03;4.43;;;11.70;99.90;;;;;;4840816;29;20219;-77
2022/10/04 08:22:42;;;;;;;7.63;5.00;;;11.90;99.90;;;;;;4840646;29;20307;-75
2022/10/04 08:25:25;;;;;;;10.27;4.40;;;12.10;99.90;;;;;;4842034;29;20211;-76
2022/10/04 08:31:08;;;;;;;7.60;3.43;;;13.00;99.90;;;;;;4841646;29;20215;-75
2022/10/04 08:33:52;;;;;;;8.27;3.70;;;13.30;99.90;;;;;;4842423;29;20319;-77
2022/10/04 08:36:33;;;;;;;6.87;3.40;;;13.80;99.90;;;;;;4842491;29;20551;-74
2022/10/04 08:39:01;;;;;;;4.50;3.17;;;14.60;99.90;;;;;;4841539;29;20310;-75
2022/10/04 08:42:03;;;;;;;5.60;3.27;;;15.00;99.90;;;;;;4842603;29;20212;-74
2022/10/04 08:45:07;;;;;;;5.07;2.80;;;15.00;99.90;;;;;;4838828;29;20231;-76
2022/10/04 08:48:23;;;;;;;7.43;3.27;;;15.40;99.90;;;;;;4842947;29;20231;-78
2022/10/04 08:51:33;;;;;;;5.10;2.70;;;16.50;99.90;;;;;;4841744;29;20606;-75
2022/10/04 08:54:39;;;;;;;4.37;2.97;;;16.30;99.90;;;;;;4845817;29;20211;-80
2022/10/04 08:57:50;;;;;;;4.50;2.70;;;16.60;99.90;;;;;;4839586;29;20673;-77
2022/10/04 09:00:32;;;;;;;5.57;2.90;;;16.30;99.90;;;;;;4834836;29;20219;-80
2022/10/04 09:03:48;;;;;;;3.20;2.50;;;15.70;99.90;;;;;;4841455;29;20302;-78
2022/10/04 09:06:32;;;;;;;5.80;3.10;;;16.00;99.90;;;;;;4837980;29;20218;-75
2022/10/04 09:09:39;;;;;;;5.17;3.00;;;16.40;99.90;;;;;;4841737;29;20224;-76
2022/10/04 09:12:45;;;;;;;5.63;2.60;;;17.40;99.90;;;;;;4841756;29;20674;-75
2022/10/04 09:15:40;;;;;;;6.30;2.40;;;17.60;99.90;;;;;;4802145;29;20213;-76
2022/10/04 09:18:29;;;;;;;5.23;2.80;;;17.70;99.90;;;;;;4841789;29;20291;-79
2022/10/04 09:21:05;;;;;;;5.47;2.53;;;18.10;99.90;;;;;;4838500;29;20215;-77
2022/10/04 09:24:23;;;;;;;5.93;2.70;;;17.90;99.90;;;;;;4843939;29;20215;-77
2022/10/04 09:27:00;;;;;;;6.90;2.50;;;17.60;99.90;;;;;;4845269;29;20226;-76
2022/10/04 09:29:53;;;;;;;6.17;2.70;;;17.40;99.90;;;;;;4844188;29;20601;-75
2022/10/04 09:32:56;;;;;;;5.50;2.63;;;17.10;99.90;;;;;;4842309;29;20226;-78
2022/10/04 09:35:58;;;;;;;5.00;2.63;;;16.20;99.90;;;;;;4826811;29;20272;-76
2022/10/04 09:38:55;;;;;;;4.97;2.63;;;15.80;99.90;;;;;;4841673;29;20215;-76
2022/10/04 09:42:07;;;;;;;5.57;2.20;;;15.60;99.90;;;;;;4844556;29;20633;-75
2022/10/04 09:45:04;;;;;;;6.40;2.40;;;16.60;99.90;;;;;;4843995;29;20242;-78
2022/10/04 09:47:50;;;;;;;4.47;2.10;;;16.80;99.90;;;;;;4844890;29;20203;-78
2022/10/04 09:50:57;;;;;;;4.73;2.27;;;17.10;99.90;;;;;;4844260;29;20203;-76
2022/10/04 09:53:51;;;;;;;5.17;2.40;;;17.30;99.90;;;;;;4827974;29;20235;-75
2022/10/04 09:57:00;;;;;;;5.20;2.30;;;17.20;99.90;;;;;;4844876;29;20208;-75
2022/10/04 09:59:53;;;;;;;5.67;2.60;;;17.00;99.90;;;;;;4844240;29;20650;-75
2022/10/04 10:03:02;;;;;;;4.20;2.10;;;16.80;99.90;;;;;;4842294;29;20220;-74
2022/10/04 10:05:57;;;;;;;5.70;2.40;;;17.10;99.90;;;;;;4844183;29;20230;-74
2022/10/04 10:08:31;;;;;;;4.67;1.97;;;17.20;99.90;;;;;;4843575;29;20231;-78
2022/10/04 10:14:21;;;;;;;5.70;2.30;;;17.50;99.90;;;;;;4843765;29;20215;-78
2022/10/04 10:17:02;;;;;;;5.23;2.30;;;18.30;99.90;;;;;;4837611;29;20219;-78
2022/10/04 10:19:59;;;;;;;5.50;2.23;;;18.00;99.90;;;;;;4843530;29;20203;-78
2022/10/04 10:22:53;;;;;;;8.00;2.30;;;17.20;99.90;;;;;;4843410;29;20240;-78
2022/10/04 10:25:30;;;;;;;6.53;2.30;;;17.30;99.90;;;;;;4844090;29;20223;-76
2022/10/04 10:28:22;;;;;;;7.20;2.63;;;17.90;99.90;;;;;;4843609;29;20585;-77
2022/10/04 10:31:13;;;;;;;5.40;2.80;;;17.70;99.90;;;;;;4842372;29;20218;-76
2022/10/04 10:34:22;;;;;;;5.63;2.43;;;17.70;99.90;;;;;;4843851;29;20200;-77
2022/10/04 10:37:08;;;;;;;6.13;2.50;;;17.10;99.90;;;;;;4820161;29;20219;-78
2022/10/04 10:40:12;;;;;;;5.50;2.60;;;17.10;99.90;;;;;;4843416;29;20215;-80
2022/10/04 10:43:19;;;;;;;7.20;3.47;;;16.50;99.90;;;;;;4843572;29;20222;-76
2022/10/04 10:46:04;;;;;;;6.60;2.50;;;17.30;99.90;;;;;;4843731;29;20391;-76
2022/10/04 10:49:08;;;;;;;8.43;2.83;;;17.70;99.90;;;;;;4843670;29;20639;-75
2022/10/04 10:52:05;;;;;;;6.87;2.37;;;17.30;99.90;;;;;;4839605;29;20226;-75
2022/10/04 10:55:18;;;;;;;4.90;2.27;;;17.60;99.90;;;;;;4843335;29;20219;-77
2022/10/04 10:58:16;;;;;;;7.13;2.47;;;18.40;99.90;;;;;;4804887;29;20227;-76
2022/10/04 11:00:59;;;;;;;6.60;2.60;;;18.20;99.90;;;;;;4845406;29;20677;-76
2022/10/04 11:04:03;;;;;;;8.27;2.73;;;18.30;99.90;;;;;;4843307;29;20196;-78
2022/10/04 11:07:20;;;;;;;6.47;2.63;;;18.40;99.90;;;;;;4830461;29;20215;-76
2022/10/04 11:10:18;;;;;;;7.37;2.50;;;18.00;99.90;;;;;;4796430;29;20290;-78
2022/10/04 11:13:03;;;;;;;4.63;2.23;;;18.20;99.90;;;;;;4804553;29;20636;-79
2022/10/04 11:15:41;;;;;;;6.17;2.30;;;18.40;99.90;;;;;;4838921;29;20319;-75
2022/10/04 11:18:44;;;;;;;6.40;2.50;;;18.50;99.90;;;;;;4842348;29;20216;-76
2022/10/04 11:22:06;;;;;;;4.50;2.70;;;18.60;99.90;;;;;;4825490;29;20555;-76
2022/10/04 11:25:03;;;;;;;5.80;2.57;;;18.50;99.90;;;;;;4840613;29;20226;-77
2022/10/04 11:27:47;;;;;;;6.50;2.83;;;18.30;99.90;;;;;;4841124;29;20218;-77
2022/10/04 11:30:23;;;;;;;6.73;2.60;;;18.80;99.90;;;;;;4841792;29;20307;-76
2022/10/04 11:33:24;;;;;;;8.50;2.93;;;18.80;99.90;;;;;;4842048;29;20200;-75
2022/10/04 11:36:25;;;;;;;6.27;2.83;;;17.80;99.90;;;;;;4845688;29;20240;-76
2022/10/04 11:39:14;;;;;;;8.93;3.33;;;17.60;99.90;;;;;;4837159;29;20241;-76
2022/10/04 11:41:53;;;;;;;5.43;3.20;;;17.50;99.90;;;;;;4841394;29;20577;-80
2022/10/04 11:44:45;;;;;;;6.53;3.30;;;17.30;99.90;;;;;;4840303;29;20749;-76
2022/10/04 11:47:27;;;;;;;6.10;2.90;;;17.20;99.90;;;;;;4841866;29;20216;-75
2022/10/04 11:50:28;;;;;;;7.00;3.27;;;17.00;99.90;;;;;;4842060;29;20693;-76
2022/10/04 11:53:34;;;;;;;8.33;3.13;;;17.30;99.90;;;;;;4840418;29;20685;-75
2022/10/04 11:56:19;;;;;;;6.47;3.00;;;17.00;99.90;;;;;;4814216;29;20317;-76
2022/10/04 11:59:09;;;;;;;6.40;3.30;;;17.40;99.90;;;;;;4842415;29;20223;-75
2022/10/04 12:02:01;;;;;;;5.87;2.90;;;17.60;99.90;;;;;;4824274;29;20552;-78
2022/10/04 12:04:52;;;;;;;5.70;2.87;;;17.60;99.90;;;;;;4824666;29;20201;-77
2022/10/04 12:07:33;;;;;;;5.53;2.60;;;17.60;99.90;;;;;;4832749;29;20216;-75
2022/10/04 12:10:19;;;;;;;5.27;3.13;;;17.30;99.90;;;;;;4853180;29;20241;-78
2022/10/04 12:13:21;;;;;;;7.77;3.40;;;17.40;99.90;;;;;;4840336;29;20295;-77
2022/10/04 12:16:04;;;;;;;7.43;3.17;;;17.60;99.90;;;;;;4840463;29;20218;-77
2022/10/04 12:19:12;;;;;;;6.67;3.43;;;17.40;99.90;;;;;;4842320;29;20211;-78
2022/10/04 12:22:04;;;;;;;7.13;3.10;;;17.50;99.90;;;;;;4841953;29;20706;-76
2022/10/04 12:24:57;;;;;;;5.43;3.03;;;17.40;99.90;;;;;;4837392;29;20306;-77
2022/10/04 12:28:06;;;;;;;7.17;3.07;;;17.70;99.90;;;;;;4842038;29;20249;-77
2022/10/04 12:30:54;;;;;;;5.60;3.43;;;17.70;99.90;;;;;;4841533;29;20769;-75
2022/10/04 12:33:33;;;;;;;6.77;3.43;;;17.10;99.90;;;;;;4841903;29;20216;-76
2022/10/04 12:36:19;;;;;;;6.73;3.57;;;17.20;99.90;;;;;;4841161;29;20215;-78
2022/10/04 12:39:04;;;;;;;4.83;2.80;;;16.90;99.90;;;;;;4841380;29;20222;-78
2022/10/04 12:41:49;;;;;;;6.33;2.83;;;17.30;99.90;;;;;;4841829;29;20652;-78
2022/10/04 12:44:39;;;;;;;5.70;2.90;;;17.20;99.90;;;;;;4841844;29;20223;-75
2022/10/04 12:47:54;;;;;;;6.37;2.77;;;17.10;99.90;;;;;;4841326;29;20204;-75
2022/10/04 12:50:35;;;;;;;6.47;2.93;;;17.20;99.90;;;;;;4843536;29;20268;-78
2022/10/04 12:53:18;;;;;;;5.70;3.10;;;17.10;99.90;;;;;;4843942;29;20227;-79
2022/10/04 12:56:04;;;;;;;5.03;3.13;;;16.80;99.90;;;;;;4841428;29;20230;-77
2022/10/04 12:58:54;;;;;;;5.90;3.27;;;16.50;99.90;;;;;;4845599;29;20196;-77
2022/10/04 13:01:32;;;;;;;9.27;3.40;;;16.40;99.90;;;;;;4844988;29;20204;-78
2022/10/04 13:04:12;;;;;;;6.23;3.10;;;16.40;99.90;;;;;;4845927;29;20279;-78
2022/10/04 13:07:00;;;;;;;5.50;2.90;;;16.40;99.90;;;;;;4845468;29;20575;-76
2022/10/04 13:09:42;;;;;;;7.77;3.43;;;16.60;99.90;;;;;;4845268;29;20200;-80
2022/10/04 13:12:45;;;;;;;5.27;3.33;;;16.80;99.90;;;;;;4844987;29;20273;-78
2022/10/04 13:15:24;;;;;;;6.10;3.00;;;16.40;99.90;;;;;;4848768;29;20222;-79
2022/10/04 13:18:09;;;;;;;6.93;3.20;;;16.40;99.90;;;;;;4845379;29;20215;-77
2022/10/04 13:20:47;;;;;;;8.23;3.23;;;16.20;99.90;;;;;;4844611;29;20264;-78
2022/10/04 13:23:27;;;;;;;8.10;3.23;;;16.20;99.90;;;;;;4845127;29;20211;-74
2022/10/04 13:26:08;;;;;;;7.90;3.30;;;16.20;99.90;;;;;;4845193;29;20239;-76
2022/10/04 13:28:46;;;;;;;5.47;3.10;;;16.60;99.90;;;;;;4837629;29;20689;-75
2022/10/04 13:31:23;;;;;;;5.87;3.10;;;16.60;99.90;;;;;;4844904;29;20223;-76
2022/10/04 13:34:00;;;;;;;7.67;3.13;;;16.60;99.90;;;;;;4845627;29;20204;-78
2022/10/04 13:36:47;;;;;;;5.47;3.20;;;16.50;99.90;;;;;;4844423;29;20223;-78
2022/10/04 13:39:28;;;;;;;7.47;3.07;;;16.60;99.90;;;;;;4844495;29;20791;-76
2022/10/04 13:42:12;;;;;;;5.83;3.33;;;16.60;99.90;;;;;;4844764;29;20195;-77
2022/10/04 13:44:59;;;;;;;7.80;3.40;;;16.40;99.90;;;;;;4844424;29;20207;-79
2022/10/04 13:47:52;;;;;;;5.80;3.10;;;16.20;99.90;;;;;;4844216;29;20227;-76
2022/10/04 13:50:47;;;;;;;6.23;3.03;;;16.20;99.90;;;;;;4844338;29;20235;-79
2022/10/04 13:56:39;;;;;;;8.10;3.20;;;16.10;99.90;;;;;;4841827;29;20647;-78
2022/10/04 13:59:18;;;;;;;4.97;3.00;;;16.00;99.90;;;;;;4838208;29;20352;-76
2022/10/04 14:02:28;;;;;;;7.03;3.70;;;16.10;99.90;;;;;;4843090;29;20291;-77
2022/10/04 14:05:39;;;;;;;5.87;3.03;;;16.20;99.90;;;;;;4837126;29;20250;-76
2022/10/04 14:08:43;;;;;;;8.63;3.20;;;16.10;99.90;;;;;;4834328;29;20215;-78
2022/10/04 14:11:57;;;;;;;5.37;2.83;;;16.00;99.90;;;;;;4839058;29;20574;-77
2022/10/04 14:15:02;;;;;;;7.17;3.43;;;15.90;99.90;;;;;;4834654;29;20293;-77
2022/10/04 14:18:06;;;;;;;7.60;3.10;;;15.80;99.90;;;;;;4840753;29;20661;-77
2022/10/04 14:21:10;;;;;;;9.23;3.67;;;15.80;99.90;;;;;;4842906;29;20211;-78
2022/10/04 14:24:11;;;;;;;6.23;2.70;;;15.50;99.90;;;;;;4838908;29;20208;-78
2022/10/04 14:27:13;;;;;;;5.83;2.63;;;15.50;99.90;;;;;;4842685;29;20255;-74
2022/10/04 14:30:17;;;;;;;4.63;2.70;;;15.50;99.90;;;;;;4827357;29;20221;-79
2022/10/04 14:33:25;;;;;;;5.10;2.80;;;15.40;99.90;;;;;;4783148;29;20276;-79
2022/10/04 14:36:24;;;;;;;6.27;2.80;;;15.40;99.90;;;;;;4806623;29;20297;-80
2022/10/04 14:39:09;;;;;;;5.57;2.80;;;15.30;99.90;;;;;;4807133;29;20224;-78
2022/10/04 14:42:05;;;;;;;6.70;2.90;;;15.10;99.90;;;;;;4807079;29;20296;-79
2022/10/04 14:45:03;;;;;;;4.83;2.70;;;15.00;99.90;;;;;;4801935;29;20225;-79
2022/10/04 14:47:48;;;;;;;5.80;3.23;;;15.10;99.90;;;;;;4806985;29;20263;-78
2022/10/04 14:50:24;;;;;;;6.13;2.77;;;15.10;99.90;;;;;;4807596;29;20252;-75
2022/10/04 14:53:08;;;;;;;5.23;2.47;;;15.10;99.90;;;;;;4806919;29;20204;-79
2022/10/04 14:56:05;;;;;;;6.17;2.47;;;15.30;99.90;;;;;;4806968;29;20292;-78
2022/10/04 14:58:41;;;;;;;5.27;2.27;;;15.40;99.90;;;;;;4806536;29;20201;-78
2022/10/04 15:01:20;;;;;;;5.10;2.50;;;15.50;99.90;;;;;;4805847;29;20676;-78
2022/10/04 15:04:18;;;;;;;5.70;2.90;;;15.60;99.90;;;;;;4806659;29;20208;-78
2022/10/04 15:06:49;;;;;;;5.37;2.53;;;15.60;99.90;;;;;;4806349;29;20209;-78
2022/10/04 15:09:49;;;;;;;3.80;2.40;;;15.50;99.90;;;;;;4798306;29;20352;-78
2022/10/04 15:12:43;;;;;;;6.07;2.50;;;15.50;99.90;;;;;;4788210;30;20735;-79
2022/10/04 15:16:06;;;;;;;8.30;3.00;;;15.50;99.90;;;;;;4788129;30;20241;-79
2022/10/04 15:18:52;;;;;;;5.50;2.57;;;15.30;99.90;;;;;;4788029;29;20208;-77
2022/10/04 15:21:47;;;;;;;7.03;2.87;;;15.20;99.90;;;;;;4788073;30;20224;-75
2022/10/04 15:24:26;;;;;;;5.87;2.73;;;15.10;99.90;;;;;;4789634;29;20213;-77
2022/10/04 15:27:22;;;;;;;6.73;2.93;;;14.90;99.90;;;;;;4788192;29;20241;-76
2022/10/04 15:30:02;;;;;;;6.80;3.00;;;14.80;99.90;;;;;;4789301;29;20198;-77
2022/10/04 15:32:37;;;;;;;6.03;3.07;;;14.60;99.90;;;;;;4802797;29;20229;-78
2022/10/04 15:35:27;;;;;;;6.80;3.00;;;14.50;99.90;;;;;;4805966;29;20220;-80
2022/10/04 15:38:03;;;;;;;5.73;2.60;;;14.40;99.90;;;;;;4804099;29;20217;-76
2022/10/04 15:40:39;;;;;;;6.33;3.07;;;14.20;99.90;;;;;;4801622;29;20562;-78
2022/10/04 15:43:24;;;;;;;6.50;3.10;;;14.20;99.90;;;;;;4805875;29;20228;-76
2022/10/04 15:46:43;;;;;;;5.03;3.13;;;14.10;99.90;;;;;;4805159;29;20228;-75
2022/10/04 15:49:47;;;;;;;5.13;2.87;;;14.10;99.90;;;;;;4773807;30;20219;-77
2022/10/04 15:52:56;;;;;;;5.67;2.97;;;14.10;99.90;;;;;;4765679;30;20238;-78
2022/10/04 15:55:50;;;;;;;11.23;3.70;;;14.00;99.90;;;;;;4792921;29;20224;-78
2022/10/04 15:58:51;;;;;;;8.20;3.80;;;13.90;99.90;;;;;;4807554;29;20217;-78
2022/10/04 16:01:44;;;;;;;8.23;3.40;;;13.90;99.90;;;;;;4776873;29;20223;-78
2022/10/04 16:04:39;;;;;;;6.60;3.10;;;13.80;99.90;;;;;;4806578;29;20352;-78
2022/10/04 16:07:41;;;;;;;6.83;2.87;;;13.80;99.90;;;;;;4806118;29;20321;-77
2022/10/04 16:10:19;;;;;;;6.47;3.30;;;13.70;99.90;;;;;;4765444;30;20225;-78
2022/10/04 16:13:19;;;;;;;7.00;3.30;;;13.70;99.90;;;;;;4783025;30;20241;-77
2022/10/04 16:16:25;;;;;;;8.60;3.60;;;13.60;99.90;;;;;;4788007;30;20198;-76
2022/10/04 16:19:08;;;;;;;6.97;3.90;;;13.60;99.90;;;;;;4794387;29;20236;-78
2022/10/04 16:21:50;;;;;;;8.33;4.10;;;13.50;99.90;;;;;;4805904;29;20217;-74
2022/10/04 16:24:44;;;;;;;6.60;3.87;;;13.40;99.90;;;;;;4805195;29;20857;-74
2022/10/04 16:27:48;;;;;;;7.30;4.47;;;13.30;99.90;;;;;;4805749;29;20233;-78
2022/10/04 16:30:27;;;;;;;8.07;4.37;;;13.20;99.90;;;;;;4805642;29;20201;-75
2022/10/04 16:33:27;;;;;;;9.87;4.50;;;13.10;99.90;;;;;;4810888;29;20232;-75
2022/10/04 16:36:09;;;;;;;10.33;4.77;;;13.00;99.90;;;;;;4779995;29;20224;-76
2022/10/04 16:39:57;;;;;;;9.60;4.67;;;12.80;99.90;;;;;;4811103;29;20197;-75
2022/10/04 16:41:43;;;;;;;11.23;4.73;;;12.70;99.90;;;;;;4810978;29;20587;-74
2022/10/04 16:44:32;;;;;;;8.07;4.60;;;12.60;99.90;;;;;;4810855;29;20228;-74
2022/10/04 16:47:13;;;;;;;8.43;4.40;;;12.40;99.90;;;;;;4814999;29;20604;-76
2022/10/04 16:49:53;;;;;;;8.87;4.20;;;12.30;99.90;;;;;;4811667;29;20228;-79
2022/10/04 16:52:46;;;;;;;8.23;4.00;;;12.10;99.90;;;;;;4810277;29;20243;-79
2022/10/04 16:55:46;;;;;;;9.40;4.10;;;12.00;99.90;;;;;;4808461;29;20332;-76
2022/10/04 16:58:55;;;;;;;7.97;3.67;;;11.90;99.90;;;;;;4807258;29;20220;-78
2022/10/04 17:02:05;;;;;;;11.97;3.90;;;11.70;99.90;;;;;;4753636;30;20223;-77
2022/10/04 17:05:18;;;;;;;9.33;4.90;;;11.60;99.90;;;;;;4811015;29;20204;-76
2022/10/04 17:08:33;;;;;;;8.57;4.80;;;11.40;99.90;;;;;;4767776;29;20221;-78
2022/10/04 17:11:37;;;;;;;11.33;5.73;;;11.40;99.90;;;;;;4771895;30;20282;-77
2022/10/04 17:14:31;;;;;;;11.07;6.20;;;11.30;99.90;;;;;;4810724;29;20201;-80
2022/10/04 17:17:10;;;;;;;9.87;6.27;;;11.20;99.90;;;;;;4811471;29;20205;-79
2022/10/04 17:19:46;;;;;;;10.20;7.37;;;11.20;99.90;;;;;;4810211;29;20303;-76
2022/10/04 17:22:32;;;;;;;12.13;6.53;;;11.10;99.90;;;;;;4810274;29;20285;-77
2022/10/04 17:25:16;;;;;;;12.43;6.87;;;11.00;99.90;;;;;;4810572;29;20213;-77
2022/10/04 17:27:49;;;;;;;11.27;6.63;;;11.00;99.90;;;;;;4810992;29;20213;-78
2022/10/04 17:30:21;;;;;;;12.30;6.60;;;10.90;99.90;;;;;;4809300;29;20216;-77
2022/10/04 17:33:15;;;;;;;11.03;6.43;;;10.80;99.90;;;;;;4810443;29;20269;-77
2022/10/04 17:36:08;;;;;;;9.43;6.43;;;10.70;99.90;;;;;;4810522;29;20246;-73
2022/10/04 17:38:47;;;;;;;10.03;6.27;;;10.70;99.90;;;;;;4812535;29;20198;-73
2022/10/04 17:41:31;;;;;;;13.90;6.83;;;10.60;99.90;;;;;;4812063;29;20217;-76
2022/10/04 17:44:26;;;;;;;12.93;6.83;;;10.50;99.90;;;;;;4809425;29;20239;-74
2022/10/04 17:46:59;;;;;;;7.43;6.20;;;10.30;99.90;;;;;;4808811;29;20655;-76
2022/10/04 17:55:27;;;;;;;8.27;6.60;;;10.10;99.90;;;;;;4797194;29;20239;-77
2022/10/04 17:58:04;;;;;;;10.50;7.57;;;10.00;99.90;;;;;;4807630;29;20225;-79
2022/10/04 18:00:51;;;;;;;14.67;7.53;;;10.00;99.90;;;;;;4806763;29;20266;-79
2022/10/04 18:03:23;;;;;;;11.97;7.97;;;10.00;99.90;;;;;;4790890;30;20209;-75
2022/10/04 18:05:59;;;;;;;11.63;7.23;;;9.90;99.90;;;;;;4790147;30;20741;-74
2022/10/04 18:08:42;;;;;;;10.93;7.80;;;9.80;99.90;;;;;;4789375;30;20660;-77
2022/10/04 18:11:20;;;;;;;13.90;7.90;;;9.80;99.90;;;;;;4794925;29;20213;-77
2022/10/04 18:14:01;;;;;;;12.70;6.90;;;9.70;99.90;;;;;;4807434;29;20242;-77
2022/10/04 18:16:31;;;;;;;10.57;7.87;;;9.60;99.90;;;;;;4806924;29;20229;-78
2022/10/04 18:19:34;;;;;;;13.37;7.57;;;9.60;99.90;;;;;;4807480;29;20208;-77
2022/10/04 18:22:16;;;;;;;13.23;8.33;;;9.50;99.90;;;;;;4807049;29;20581;-77
2022/10/04 18:24:47;;;;;;;10.50;8.40;;;9.50;99.90;;;;;;4806829;29;20216;-78
2022/10/04 18:27:20;;;;;;;13.07;8.47;;;9.30;99.90;;;;;;4807291;29;20237;-78
2022/10/04 18:30:14;;;;;;;16.60;8.27;;;9.30;99.90;;;;;;4807481;29;20661;-77
2022/10/04 18:32:47;;;;;;;15.97;9.07;;;9.30;99.90;;;;;;4807525;29;20222;-77
2022/10/04 18:35:26;;;;;;;14.83;9.33;;;9.20;99.90;;;;;;4807059;29;20591;-78
2022/10/04 18:37:58;;;;;;;13.33;8.73;;;9.10;99.90;;;;;;4807005;29;20201;-78
2022/10/04 18:40:27;;;;;;;12.77;9.10;;;9.10;99.90;;;;;;4807622;29;20568;-79
2022/10/04 18:43:00;;;;;;;10.17;8.50;;;9.00;99.90;;;;;;4807665;29;20217;-77
2022/10/04 18:45:32;;;;;;;11.27;9.00;;;8.90;99.90;;;;;;4807174;29;20209;-78
2022/10/04 18:48:17;;;;;;;12.37;8.33;;;8.90;99.90;;;;;;4806951;29;20681;-79
2022/10/04 18:50:47;;;;;;;15.17;9.70;;;8.80;99.90;;;;;;4807075;29;20205;-74
2022/10/04 18:53:42;;;;;;;17.20;10.67;;;8.70;99.90;;;;;;4806632;29;20237;-78
2022/10/04 18:56:14;;;;;;;14.57;9.20;;;8.70;99.90;;;;;;4805866;29;20240;-79
2022/10/04 19:02:01;;;;;;;14.23;8.23;;;8.60;99.90;;;;;;4806539;29;20225;-76
2022/10/04 19:04:44;;;;;;;13.60;9.03;;;8.50;99.90;;;;;;4806759;29;20204;-78
2022/10/04 19:07:15;;;;;;;17.83;10.00;;;8.50;99.90;;;;;;4806756;29;20223;-77
2022/10/04 19:10:06;;;;;;;13.33;9.57;;;8.50;99.90;;;;;;4806353;29;20231;-77
2022/10/04 19:12:46;;;;;;;17.30;9.97;;;8.40;99.90;;;;;;4806147;29;20274;-78
2022/10/04 19:15:25;;;;;;;14.23;10.27;;;8.40;99.90;;;;;;4806633;29;20208;-79
2022/10/04 19:18:10;;;;;;;13.77;10.90;;;8.40;99.90;;;;;;4806022;29;20264;-79
2022/10/04 19:20:41;;;;;;;16.23;11.83;;;8.30;99.90;;;;;;4806088;29;20221;-77
2022/10/04 19:23:23;;;;;;;16.03;11.73;;;8.30;99.90;;;;;;4806759;29;20620;-77
2022/10/04 19:25:55;;;;;;;15.73;12.80;;;8.30;99.90;;;;;;4806001;29;20221;-77
2022/10/04 19:28:48;;;;;;;14.33;12.27;;;8.20;99.90;;;;;;4806181;29;20266;-77
2022/10/04 19:31:23;;;;;;;14.80;11.77;;;8.20;99.90;;;;;;4805879;29;20261;-79
2022/10/04 19:33:56;;;;;;;17.30;12.20;;;8.20;99.90;;;;;;4805363;29;20224;-78
2022/10/04 19:36:45;;;;;;;17.07;12.40;;;8.10;99.90;;;;;;4805976;29;20212;-78
2022/10/04 19:39:35;;;;;;;14.50;11.30;;;8.10;99.90;;;;;;4805476;29;20701;-77
2022/10/04 19:42:11;;;;;;;13.00;11.37;;;8.00;99.90;;;;;;4805104;29;20212;-79
2022/10/04 19:44:51;;;;;;;15.87;11.30;;;8.00;99.90;;;;;;4805485;29;20231;-80
2022/10/04 19:47:38;;;;;;;18.80;11.83;;;7.90;99.90;;;;;;4805783;29;20197;-79
2022/10/04 19:50:20;;;;;;;14.37;11.00;;;7.90;99.90;;;;;;4805335;29;20631;-78
2022/10/04 19:52:52;;;;;;;18.50;12.17;;;7.90;99.90;;;;;;4805639;29;20205;-78
2022/10/04 19:55:25;;;;;;;17.83;13.13;;;7.80;99.90;;;;;;4805739;29;20664;-79
2022/10/04 19:58:06;;;;;;;18.57;14.90;;;7.90;99.90;;;;;;4804828;29;20213;-78
2022/10/04 20:00:36;;;;;;;15.13;12.80;;;7.90;99.90;;;;;;4805309;29;20690;-74
2022/10/04 20:03:11;;;;;;;17.63;13.63;;;7.80;99.90;;;;;;4805468;29;20420;-76
2022/10/04 20:05:45;;;;;;;15.23;12.57;;;7.80;99.90;;;;;;4804485;29;20690;-78
2022/10/04 20:08:15;;;;;;;21.17;12.73;;;7.70;99.90;;;;;;4805448;29;20205;-78
2022/10/04 20:10:44;;;;;;;13.90;11.80;;;7.70;99.90;;;;;;4804934;29;20217;-76
2022/10/04 20:13:22;;;;;;;18.30;13.80;;;7.60;99.90;;;;;;4804785;29;20607;-76
2022/10/04 20:15:58;;;;;;;15.23;12.23;;;7.70;99.90;;;;;;4805358;29;20201;-75
2022/10/04 20:19:04;;;;;;;15.33;13.00;;;7.70;99.90;;;;;;4807482;29;20296;-77
2022/10/04 20:21:37;;;;;;;19.37;13.60;;;7.60;99.90;;;;;;4805057;29;20227;-77
2022/10/04 20:24:16;;;;;;;17.97;14.33;;;7.60;99.90;;;;;;4805339;29;20197;-73
2022/10/04 20:27:05;;;;;;;17.97;14.00;;;7.60;99.90;;;;;;4804962;29;20230;-77
2022/10/04 20:30:02;;;;;;;16.80;13.10;;;7.60;99.90;;;;;;4804411;29;20272;-78
2022/10/04 20:32:54;;;;;;;17.37;13.73;;;7.50;99.90;;;;;;4802465;29;20228;-75
2022/10/04 20:36:00;;;;;;;18.53;13.30;;;7.40;99.90;;;;;;4805011;29;20592;-73